createdAt,value
2019-03-02T00:03:38.054Z,101121.55
2019-03-02T00:06:05.181Z,101114.96
2019-03-02T00:08:32.477Z,101118.44
2019-03-02T00:10:59.743Z,101114.44
2019-03-02T00:13:26.891Z,101112.78
2019-03-02T00:15:54.305Z,101118.44
2019-03-02T00:18:21.485Z,101118.77
2019-03-02T00:20:50.325Z,101118.34
2019-03-02T00:23:18.888Z,101113.65
2019-03-02T00:25:46.570Z,101127.53
2019-03-02T00:28:13.575Z,101123.14
2019-03-02T00:30:40.410Z,101117.48
2019-03-02T00:33:07.360Z,101116.09
2019-03-02T00:35:34.092Z,101108.48
2019-03-02T00:38:00.961Z,101115.73
2019-03-02T00:40:30.373Z,101123.44
2019-03-02T00:42:56.482Z,101113.58
2019-03-02T00:45:23.201Z,101117.45
2019-03-02T00:47:50.000Z,101107.83
2019-03-02T00:50:36.647Z,101109.65
2019-03-02T00:53:05.394Z,101107.16
2019-03-02T00:55:45.391Z,101110.11
2019-03-02T00:58:12.618Z,101107.98
2019-03-02T01:00:39.468Z,101106.99
2019-03-02T01:03:06.592Z,101103.09
2019-03-02T01:05:36.104Z,101107.42
2019-03-02T01:08:02.023Z,101107.80
2019-03-02T01:10:28.891Z,101102.63
2019-03-02T01:12:55.768Z,101107.47
2019-03-02T01:15:22.710Z,101109.22
2019-03-02T01:17:49.543Z,101104.05
2019-03-02T01:20:16.495Z,101101.35
2019-03-02T01:22:43.511Z,101104.05
2019-03-02T01:25:13.490Z,101100.91
2019-03-02T01:27:40.497Z,101099.97
2019-03-02T01:30:29.965Z,101101.78
2019-03-02T01:32:57.538Z,101104.77
2019-03-02T01:35:24.191Z,101097.80
2019-03-02T01:37:50.837Z,101105.14
2019-03-02T01:40:18.284Z,101096.48
2019-03-02T01:42:44.948Z,101101.23
2019-03-02T01:45:13.773Z,101095.97
2019-03-02T01:47:40.817Z,101093.39
2019-03-02T01:50:49.360Z,101090.84
2019-03-02T01:53:16.562Z,101092.14
2019-03-02T01:55:43.185Z,101086.94
2019-03-02T01:58:32.262Z,101085.20
2019-03-02T02:00:59.014Z,101076.02
2019-03-02T02:03:25.740Z,101075.59
2019-03-02T02:05:52.705Z,101079.57
2019-03-02T02:08:19.534Z,101073.52
2019-03-02T02:10:46.267Z,101080.84
2019-03-02T02:13:13.064Z,101071.27
2019-03-02T02:15:39.798Z,101075.59
2019-03-02T02:18:06.530Z,101070.37
2019-03-02T02:20:33.429Z,101070.79
2019-03-02T02:23:00.175Z,101068.66
2019-03-02T02:25:27.184Z,101070.02
2019-03-02T02:27:54.860Z,101070.04
2019-03-02T02:31:06.390Z,101061.36
2019-03-02T02:33:33.240Z,101055.17
2019-03-02T02:36:00.715Z,101054.34
2019-03-02T02:38:28.041Z,101055.20
2019-03-02T02:40:54.834Z,101058.33
2019-03-02T02:43:22.366Z,101050.50
2019-03-02T02:45:53.634Z,101049.70
2019-03-02T02:48:19.305Z,101043.30
2019-03-02T02:50:46.145Z,101035.02
2019-03-02T02:53:12.875Z,101030.75
2019-03-02T02:55:40.982Z,101030.75
2019-03-02T02:58:12.717Z,101030.26
2019-03-02T03:00:37.015Z,101028.38
2019-03-02T03:03:04.139Z,101028.13
2019-03-02T03:05:53.933Z,101030.77
2019-03-02T03:08:55.695Z,101036.32
2019-03-02T03:11:22.721Z,101038.47
2019-03-02T03:13:49.581Z,101029.90
2019-03-02T03:16:17.899Z,101026.00
2019-03-02T03:18:47.146Z,101023.81
2019-03-02T03:21:13.812Z,101032.08
2019-03-02T03:23:40.671Z,101035.58
2019-03-02T03:26:07.539Z,101026.92
2019-03-02T03:28:34.262Z,101034.28
2019-03-02T03:31:01.124Z,101027.80
2019-03-02T03:33:42.141Z,101032.58
2019-03-02T03:35:57.717Z,101025.19
2019-03-02T03:38:29.375Z,101026.53
2019-03-02T03:40:54.358Z,101027.00
2019-03-02T03:43:21.190Z,101029.14
2019-03-02T03:45:48.055Z,101033.89
2019-03-02T03:48:17.946Z,101031.76
2019-03-02T03:50:48.023Z,101027.43
2019-03-02T03:53:12.826Z,101018.79
2019-03-02T03:55:39.556Z,101032.28
2019-03-02T03:58:13.189Z,101026.66
2019-03-02T04:00:40.407Z,101029.22
2019-03-02T04:03:21.261Z,101028.75
2019-03-02T04:05:48.686Z,101032.25
2019-03-02T04:08:17.264Z,101028.34
2019-03-02T04:10:44.001Z,101024.83
2019-03-02T04:13:10.805Z,101031.31
2019-03-02T04:15:41.515Z,101026.53
2019-03-02T04:18:50.122Z,101026.09
2019-03-02T04:21:14.541Z,101036.06
2019-03-02T04:23:41.173Z,101023.89
2019-03-02T04:26:08.563Z,101023.89
2019-03-02T04:28:35.203Z,101026.90
2019-03-02T04:31:04.718Z,101024.78
2019-03-02T04:33:30.666Z,101029.87
2019-03-02T04:35:57.318Z,101025.16
2019-03-02T04:38:24.042Z,101020.41
2019-03-02T04:40:51.020Z,101029.98
2019-03-02T04:43:17.749Z,101023.08
2019-03-02T04:45:44.488Z,101021.78
2019-03-02T04:48:11.301Z,101023.11
2019-03-02T04:50:38.217Z,101025.23
2019-03-02T04:53:05.139Z,101017.41
2019-03-02T04:55:32.324Z,101019.98
2019-03-02T04:57:58.965Z,101015.59
2019-03-02T05:00:28.627Z,101018.24
2019-03-02T05:02:56.163Z,101016.47
2019-03-02T05:05:24.170Z,101021.75
2019-03-02T05:07:50.995Z,101017.34
2019-03-02T05:10:17.953Z,101014.31
2019-03-02T05:12:44.686Z,101019.08
2019-03-02T05:15:16.186Z,101015.98
2019-03-02T05:17:42.967Z,101017.75
2019-03-02T05:20:09.965Z,101015.57
2019-03-02T05:22:36.697Z,101015.06
2019-03-02T05:25:04.345Z,101012.05
2019-03-02T05:27:32.038Z,101014.27
2019-03-02T05:29:59.729Z,101009.01
2019-03-02T05:32:26.438Z,101016.47
2019-03-02T05:34:53.069Z,101006.05
2019-03-02T05:37:19.983Z,101016.01
2019-03-02T05:39:49.549Z,101016.02
2019-03-02T05:42:15.565Z,101016.92
2019-03-02T05:44:42.311Z,101016.45
2019-03-02T05:47:09.424Z,101019.91
2019-03-02T05:49:36.161Z,101026.41
2019-03-02T05:52:03.310Z,101018.98
2019-03-02T05:54:30.024Z,101028.58
2019-03-02T05:56:56.752Z,101029.95
2019-03-02T05:59:26.599Z,101028.09
2019-03-02T06:01:52.155Z,101026.81
2019-03-02T06:04:22.108Z,101026.34
2019-03-02T06:07:00.405Z,101027.64
2019-03-02T06:09:27.684Z,101025.46
2019-03-02T06:11:54.614Z,101028.95
2019-03-02T06:14:21.587Z,101018.09
2019-03-02T06:16:48.229Z,101024.66
2019-03-02T06:19:17.801Z,101028.95
2019-03-02T06:22:03.339Z,101028.09
2019-03-02T06:24:30.686Z,101030.31
2019-03-02T06:26:57.756Z,101029.84
2019-03-02T06:29:24.550Z,101024.61
2019-03-02T06:31:54.044Z,101026.87
2019-03-02T06:34:20.730Z,101031.27
2019-03-02T06:36:48.164Z,101038.56
2019-03-02T06:39:15.138Z,101034.31
2019-03-02T06:41:42.047Z,101042.91
2019-03-02T06:44:50.029Z,101049.50
2019-03-02T06:47:17.230Z,101042.98
2019-03-02T06:49:44.338Z,101052.97
2019-03-02T06:52:30.773Z,101046.89
2019-03-02T06:54:58.030Z,101036.41
2019-03-02T06:57:25.134Z,101048.70
2019-03-02T07:01:49.322Z,101051.83
2019-03-02T07:04:18.058Z,101049.09
2019-03-02T07:06:46.913Z,101053.47
2019-03-02T07:09:27.621Z,101051.36
2019-03-02T07:11:54.548Z,101048.75
2019-03-02T07:14:21.595Z,101051.38
2019-03-02T07:16:51.975Z,101050.09
2019-03-02T07:19:37.952Z,101041.40
2019-03-02T07:22:04.822Z,101052.31
2019-03-02T07:24:31.569Z,101054.49
2019-03-02T07:26:58.984Z,101044.13
2019-03-02T07:29:45.463Z,101049.38
2019-03-02T07:32:13.192Z,101041.17
2019-03-02T07:34:40.801Z,101047.27
2019-03-02T07:37:09.210Z,101048.69
2019-03-02T07:39:38.437Z,101048.69
2019-03-02T07:42:05.272Z,101052.22
2019-03-02T07:44:32.062Z,101044.88
2019-03-02T07:46:59.741Z,101042.74
2019-03-02T07:49:26.573Z,101047.52
2019-03-02T07:51:53.442Z,101049.72
2019-03-02T07:54:20.576Z,101050.58
2019-03-02T07:56:47.751Z,101040.19
2019-03-02T07:59:15.206Z,101042.78
2019-03-02T08:01:42.261Z,101041.09
2019-03-02T08:04:09.622Z,101052.38
2019-03-02T08:06:36.480Z,101058.48
2019-03-02T08:09:44.698Z,101059.33
2019-03-02T08:12:11.980Z,101053.31
2019-03-02T08:14:39.270Z,101048.59
2019-03-02T08:17:09.790Z,101049.44
2019-03-02T08:19:35.450Z,101042.93
2019-03-02T08:22:03.756Z,101042.96
2019-03-02T08:24:32.766Z,101046.41
2019-03-02T08:26:59.872Z,101042.16
2019-03-02T08:29:46.586Z,101038.61
2019-03-02T08:32:13.494Z,101040.81
2019-03-02T08:34:42.856Z,101042.09
2019-03-02T08:37:09.738Z,101039.12
2019-03-02T08:39:37.410Z,101043.45
2019-03-02T08:42:05.051Z,101039.59
2019-03-02T08:44:32.514Z,101041.77
2019-03-02T08:47:00.280Z,101036.55
2019-03-02T08:49:27.381Z,101041.32
2019-03-02T08:51:55.376Z,101039.63
2019-03-02T08:54:22.741Z,101042.27
2019-03-02T08:56:49.830Z,101035.77
2019-03-02T08:59:17.318Z,101043.19
2019-03-02T09:01:44.559Z,101040.59
2019-03-02T09:04:14.049Z,101043.19
2019-03-02T09:06:40.857Z,101037.15
2019-03-02T09:09:08.461Z,101043.23
2019-03-02T09:11:35.376Z,101040.63
2019-03-02T09:14:02.539Z,101043.67
2019-03-02T09:16:29.825Z,101048.00
2019-03-02T09:18:56.612Z,101042.36
2019-03-02T09:21:23.374Z,101044.09
2019-03-02T09:23:51.724Z,101043.67
2019-03-02T09:26:19.237Z,101041.04
2019-03-02T09:28:46.699Z,101042.31
2019-03-02T09:31:13.831Z,101045.39
2019-03-02T09:33:40.939Z,101047.13
2019-03-02T09:36:07.948Z,101040.17
2019-03-02T09:38:34.889Z,101050.63
2019-03-02T09:41:01.654Z,101046.30
2019-03-02T09:43:28.407Z,101053.67
2019-03-02T09:45:55.560Z,101052.80
2019-03-02T09:48:24.525Z,101053.67
2019-03-02T09:50:51.095Z,101054.98
2019-03-02T09:53:18.150Z,101053.23
2019-03-02T09:55:44.977Z,101054.11
2019-03-02T09:58:12.033Z,101049.31
2019-03-02T10:00:39.293Z,101052.36
2019-03-02T10:03:06.299Z,101048.88
2019-03-02T10:05:33.035Z,101051.05
2019-03-02T10:08:00.548Z,101054.98
2019-03-02T10:10:28.987Z,101053.22
2019-03-02T10:12:57.261Z,101058.47
2019-03-02T10:15:24.695Z,101063.27
2019-03-02T10:17:52.284Z,101057.59
2019-03-02T10:20:19.594Z,101062.37
2019-03-02T10:22:46.850Z,101058.02
2019-03-02T10:25:14.343Z,101057.59
2019-03-02T10:27:41.717Z,101062.80
2019-03-02T10:30:11.725Z,101054.98
2019-03-02T10:32:38.867Z,101055.42
2019-03-02T10:35:06.693Z,101059.77
2019-03-02T10:37:33.947Z,101056.29
2019-03-02T10:40:01.529Z,101060.19
2019-03-02T10:42:32.081Z,101061.95
2019-03-02T10:45:17.765Z,101064.54
2019-03-02T10:47:45.311Z,101064.12
2019-03-02T10:50:14.745Z,101064.09
2019-03-02T10:52:41.713Z,101064.98
2019-03-02T10:55:12.303Z,101065.84
2019-03-02T10:57:38.951Z,101064.13
2019-03-02T11:00:09.258Z,101057.16
2019-03-02T11:02:37.014Z,101057.16
2019-03-02T11:08:16.201Z,101054.98
2019-03-02T11:11:02.897Z,101052.77
2019-03-02T11:13:51.980Z,101055.38
2019-03-02T11:16:38.375Z,101056.67
2019-03-02T11:19:25.187Z,101051.03
2019-03-02T11:22:14.972Z,101050.58
2019-03-02T11:25:00.443Z,101048.83
2019-03-02T11:27:49.684Z,101051.88
2019-03-02T11:30:36.152Z,101063.17
2019-03-02T11:33:22.885Z,101062.74
2019-03-02T11:36:10.597Z,101053.06
2019-03-02T11:38:57.443Z,101057.39
2019-03-02T11:41:44.236Z,101052.55
2019-03-02T11:44:31.462Z,101057.42
2019-03-02T11:47:18.116Z,101052.59
2019-03-02T11:50:04.602Z,101047.83
2019-03-02T11:52:51.339Z,101037.20
2019-03-02T11:55:38.326Z,101037.16
2019-03-02T11:58:14.029Z,101035.45
2019-03-02T12:01:01.097Z,101028.86
2019-03-02T12:03:47.797Z,101035.34
2019-03-02T12:06:25.494Z,101030.50
2019-03-02T12:09:12.430Z,101027.87
2019-03-02T12:11:59.037Z,101027.36
2019-03-02T12:14:46.293Z,101019.25
2019-03-02T12:17:41.050Z,101013.66
2019-03-02T12:20:24.951Z,101006.65
2019-03-02T12:22:59.936Z,101004.92
2019-03-02T12:25:46.671Z,101014.73
2019-03-02T12:28:36.233Z,101008.35
2019-03-02T12:31:21.959Z,101012.66
2019-03-02T12:34:08.665Z,101011.02
2019-03-02T12:36:55.467Z,101008.95
2019-03-02T12:39:42.179Z,101001.14
2019-03-02T12:42:30.397Z,101007.73
2019-03-02T12:45:17.342Z,101009.47
2019-03-02T12:48:04.218Z,100993.34
2019-03-02T12:50:51.517Z,100999.40
2019-03-02T12:53:35.689Z,101000.22
2019-03-02T12:56:21.951Z,100999.80
2019-03-02T12:59:08.478Z,100998.48
2019-03-02T13:01:55.348Z,100993.73
2019-03-02T13:04:45.408Z,100993.81
2019-03-02T13:07:30.873Z,100995.59
2019-03-02T13:10:17.724Z,100994.66
2019-03-02T13:13:04.397Z,100991.67
2019-03-02T13:15:51.212Z,100991.16
2019-03-02T13:18:38.323Z,100986.36
2019-03-02T13:21:25.078Z,100985.48
2019-03-02T13:24:14.898Z,100991.02
2019-03-02T13:26:49.821Z,100984.91
2019-03-02T13:29:23.132Z,100981.53
2019-03-02T13:32:09.780Z,100978.86
2019-03-02T13:34:56.292Z,100970.14
2019-03-02T13:37:42.955Z,100975.81
2019-03-02T13:40:29.752Z,100972.02
2019-03-02T13:43:37.557Z,100958.50
2019-03-02T13:46:24.851Z,100955.80
2019-03-02T13:49:11.360Z,100955.25
2019-03-02T13:51:58.148Z,100950.84
2019-03-02T13:54:33.878Z,100950.34
2019-03-02T13:57:11.122Z,100941.69
2019-03-02T13:59:58.036Z,100946.09
2019-03-02T14:02:44.797Z,100940.42
2019-03-02T14:05:31.378Z,100944.84
2019-03-02T14:08:17.842Z,100936.50
2019-03-02T14:11:04.764Z,100939.48
2019-03-02T14:13:51.255Z,100934.63
2019-03-02T14:16:37.994Z,100940.42
2019-03-02T14:19:31.907Z,100931.63
2019-03-02T14:22:18.500Z,100924.22
2019-03-02T14:24:55.026Z,100923.78
2019-03-02T14:27:41.468Z,100933.31
2019-03-02T14:30:12.849Z,100925.91
2019-03-02T14:32:59.409Z,100922.87
2019-03-02T14:35:46.068Z,100920.28
2019-03-02T14:38:23.795Z,100928.14
2019-03-02T14:41:09.055Z,100927.21
2019-03-02T14:43:57.150Z,100927.30
2019-03-02T14:46:45.517Z,100921.67
2019-03-02T14:49:32.224Z,100921.73
2019-03-02T14:52:19.034Z,100915.12
2019-03-02T14:55:05.721Z,100911.08
2019-03-02T14:57:52.629Z,100905.75
2019-03-02T15:00:39.379Z,100909.62
2019-03-02T15:03:29.349Z,100907.88
2019-03-02T15:06:15.607Z,100912.16
2019-03-02T15:08:51.252Z,100919.66
2019-03-02T15:11:40.030Z,100917.09
2019-03-02T15:14:26.466Z,100919.73
2019-03-02T15:17:13.183Z,100920.61
2019-03-02T15:19:59.250Z,100920.31
2019-03-02T15:22:46.396Z,100919.92
2019-03-02T15:25:33.197Z,100915.58
2019-03-02T15:28:28.930Z,100916.05
2019-03-02T15:31:09.784Z,100909.96
2019-03-02T15:33:56.319Z,100906.96
2019-03-02T15:36:44.081Z,100900.44
2019-03-02T15:39:32.050Z,100904.79
2019-03-02T15:42:21.257Z,100898.69
2019-03-02T15:45:06.897Z,100898.20
2019-03-02T15:47:53.393Z,100908.72
2019-03-02T15:50:40.225Z,100911.81
2019-03-02T15:53:26.584Z,100910.01
2019-03-02T15:56:35.640Z,100906.10
2019-03-02T15:59:22.158Z,100910.51
2019-03-02T16:02:10.225Z,100907.88
2019-03-02T16:04:56.594Z,100908.78
2019-03-02T16:07:38.881Z,100900.92
2019-03-02T16:10:27.667Z,100892.27
2019-03-02T16:13:16.846Z,100898.37
2019-03-02T16:15:49.927Z,100895.36
2019-03-02T16:18:38.393Z,100888.39
2019-03-02T16:21:24.937Z,100886.73
2019-03-02T16:24:11.379Z,100886.78
2019-03-02T16:26:45.062Z,100890.31
2019-03-02T16:29:31.468Z,100895.09
2019-03-02T16:32:05.196Z,100889.88
2019-03-02T16:34:51.801Z,100890.34
2019-03-02T16:37:38.435Z,100880.77
2019-03-02T16:40:26.056Z,100881.67
2019-03-02T16:43:12.952Z,100873.39
2019-03-02T16:45:59.370Z,100873.83
2019-03-02T16:48:45.799Z,100868.64
2019-03-02T16:51:53.701Z,100868.27
2019-03-02T16:54:40.072Z,100870.41
2019-03-02T16:57:30.344Z,100866.95
2019-03-02T17:00:14.777Z,100866.52
2019-03-02T17:03:03.015Z,100861.73
2019-03-02T17:05:38.669Z,100865.22
2019-03-02T17:08:25.331Z,100864.77
2019-03-02T17:10:59.536Z,100868.28
2019-03-02T17:13:45.535Z,100867.84
2019-03-02T17:16:35.331Z,100860.91
2019-03-02T17:19:24.444Z,100858.69
2019-03-02T17:22:09.198Z,100855.24
2019-03-02T17:24:56.161Z,100848.25
2019-03-02T17:27:43.211Z,100855.23
2019-03-02T17:30:34.161Z,100854.80
2019-03-02T17:33:20.915Z,100851.31
2019-03-02T17:36:07.613Z,100853.52
2019-03-02T17:38:54.324Z,100851.77
2019-03-02T17:41:41.103Z,100853.08
2019-03-02T17:44:28.079Z,100860.50
2019-03-02T17:47:15.161Z,100862.23
2019-03-02T17:50:01.864Z,100857.00
2019-03-02T17:52:50.487Z,100859.63
2019-03-02T17:55:25.058Z,100860.91
2019-03-02T17:58:11.874Z,100859.19
2019-03-02T18:00:58.236Z,100861.34
2019-03-02T18:03:50.201Z,100863.98
2019-03-02T18:06:35.452Z,100866.14
2019-03-02T18:09:24.053Z,100860.91
2019-03-02T18:12:11.252Z,100868.30
2019-03-02T18:14:58.235Z,100865.27
2019-03-02T18:17:45.216Z,100867.45
2019-03-02T18:20:15.898Z,100860.91
2019-03-02T18:22:43.037Z,100859.59
2019-03-02T18:25:11.983Z,100863.09
2019-03-02T18:27:39.577Z,100866.57
2019-03-02T18:30:09.963Z,100864.41
2019-03-02T18:35:34.060Z,100860.48
2019-03-02T18:38:04.485Z,100853.96
2019-03-02T18:40:31.229Z,100853.11
2019-03-02T18:42:58.607Z,100847.02
2019-03-02T18:45:45.906Z,100843.55
2019-03-02T18:48:34.136Z,100849.17
2019-03-02T18:51:22.461Z,100846.98
2019-03-02T18:53:49.713Z,100850.02
2019-03-02T18:56:16.454Z,100850.88
2019-03-02T18:58:43.097Z,100855.19
2019-03-02T19:01:51.207Z,100843.86
2019-03-02T19:04:20.759Z,100844.71
2019-03-02T19:06:49.139Z,100845.53
2019-03-02T19:11:55.351Z,100840.27
2019-03-02T19:14:23.960Z,100838.95
2019-03-02T19:16:50.691Z,100833.72
2019-03-02T19:19:18.587Z,100829.84
2019-03-02T19:21:45.361Z,100831.95
2019-03-02T19:24:12.152Z,100833.70
2019-03-02T19:26:39.289Z,100828.03
2019-03-02T19:29:06.291Z,100821.94
2019-03-02T19:32:14.175Z,100818.09
2019-03-02T19:35:00.493Z,100812.43
2019-03-02T19:37:27.278Z,100812.86
2019-03-02T19:39:54.178Z,100808.95
2019-03-02T19:42:20.914Z,100813.28
2019-03-02T19:44:47.973Z,100796.75
2019-03-02T19:47:14.853Z,100798.05
2019-03-02T19:49:41.596Z,100802.39
2019-03-02T19:52:08.533Z,100794.59
2019-03-02T19:54:35.272Z,100783.77
2019-03-02T19:57:02.038Z,100778.08
2019-03-02T19:59:28.894Z,100781.53
2019-03-02T20:01:55.832Z,100786.75
2019-03-02T20:04:23.160Z,100780.27
2019-03-02T20:06:50.026Z,100789.77
2019-03-02T20:09:17.777Z,100788.45
2019-03-02T20:11:44.505Z,100789.33
2019-03-02T20:14:11.904Z,100783.69
2019-03-02T20:16:38.925Z,100781.05
2019-03-02T20:19:06.268Z,100783.64
2019-03-02T20:21:33.095Z,100781.91
2019-03-02T20:23:59.833Z,100780.63
2019-03-02T20:26:26.891Z,100782.80
2019-03-02T20:28:54.513Z,100778.42
2019-03-02T20:31:21.506Z,100770.20
2019-03-02T20:33:48.659Z,100779.28
2019-03-02T20:36:15.589Z,100775.38
2019-03-02T20:38:42.435Z,100777.13
2019-03-02T20:41:09.582Z,100771.50
2019-03-02T20:43:36.926Z,100770.63
2019-03-02T20:46:04.080Z,100771.50
2019-03-02T20:48:50.677Z,100771.08
2019-03-02T20:51:17.521Z,100759.84
2019-03-02T20:53:44.207Z,100763.35
2019-03-02T20:56:11.401Z,100760.30
2019-03-02T20:58:38.710Z,100755.09
2019-03-02T21:01:05.466Z,100761.14
2019-03-02T21:03:52.100Z,100752.03
2019-03-02T21:06:18.776Z,100750.34
2019-03-02T21:08:46.153Z,100741.19
2019-03-02T21:11:14.190Z,100748.95
2019-03-02T21:13:41.345Z,100742.91
2019-03-02T21:16:08.547Z,100739.89
2019-03-02T21:18:35.474Z,100741.21
2019-03-02T21:21:02.634Z,100734.70
2019-03-02T21:23:29.643Z,100731.26
2019-03-02T21:26:16.238Z,100729.09
2019-03-02T21:28:43.021Z,100728.72
2019-03-02T21:31:09.756Z,100729.19
2019-03-02T21:33:56.059Z,100729.19
2019-03-02T21:36:22.794Z,100722.70
2019-03-02T21:38:50.003Z,100723.14
2019-03-02T21:41:16.688Z,100727.51
2019-03-02T21:43:43.770Z,100728.80
2019-03-02T21:46:10.788Z,100731.86
2019-03-02T21:48:37.936Z,100725.77
2019-03-02T21:51:05.765Z,100719.28
2019-03-02T21:53:33.589Z,100711.89
2019-03-02T21:56:00.668Z,100705.80
2019-03-02T21:58:47.548Z,100697.99
2019-03-02T22:01:14.337Z,100694.52
2019-03-02T22:03:41.078Z,100695.80
2019-03-02T22:06:27.375Z,100691.05
2019-03-02T22:08:54.504Z,100694.52
2019-03-02T22:11:21.482Z,100680.59
2019-03-02T22:13:48.265Z,100668.44
2019-03-02T22:16:34.833Z,100666.28
2019-03-02T22:19:01.717Z,100665.83
2019-03-02T22:21:28.469Z,100662.36
2019-03-02T22:23:55.207Z,100641.07
2019-03-02T22:26:22.012Z,100638.00
2019-03-02T22:28:49.389Z,100634.53
2019-03-02T22:31:16.187Z,100635.83
2019-03-02T22:33:43.511Z,100626.27
2019-03-02T22:36:10.551Z,100632.33
2019-03-02T22:38:37.474Z,100626.68
2019-03-02T22:41:04.263Z,100624.04
2019-03-02T22:43:31.001Z,100620.63
2019-03-02T22:45:57.941Z,100631.08
2019-03-02T22:48:24.722Z,100627.59
2019-03-02T22:50:51.453Z,100621.99
2019-03-02T22:53:38.059Z,100627.65
2019-03-02T22:56:04.903Z,100629.39
2019-03-02T22:58:31.281Z,100635.05
2019-03-02T23:01:37.517Z,100636.79
2019-03-02T23:04:04.549Z,100629.41
2019-03-02T23:06:31.401Z,100617.23
2019-03-02T23:08:58.815Z,100611.17
2019-03-02T23:11:25.461Z,100607.69
2019-03-02T23:13:52.193Z,100605.97
2019-03-02T23:16:18.988Z,100610.29
2019-03-02T23:18:45.836Z,100618.12
2019-03-02T23:21:12.669Z,100614.22
2019-03-02T23:23:39.475Z,100604.66
2019-03-02T23:26:06.317Z,100609.45
2019-03-02T23:28:33.059Z,100601.61
2019-03-02T23:30:59.849Z,100602.91
2019-03-02T23:33:26.639Z,100595.51
2019-03-02T23:35:53.468Z,100591.14
2019-03-02T23:38:20.256Z,100576.38
2019-03-02T23:40:47.269Z,100578.12
2019-03-02T23:43:14.352Z,100587.22
2019-03-02T23:46:01.018Z,100577.23
2019-03-02T23:48:27.907Z,100570.28
2019-03-02T23:50:55.375Z,100562.87
2019-03-02T23:53:22.160Z,100563.27
2019-03-02T23:55:49.037Z,100546.28
2019-03-02T23:58:15.886Z,100545.37
